Time;durP1;ratioP1;P1;durP2;ratioP2;P2;SDS_P1;SDS_P2;PMS_P1;PMS_P2;Temp;Humidity;BMP_temperature;BMP_pressure;BME280_temperature;BME280_humidity;BME280_pressure;Samples;Min_cycle;Max_cycle;Signal;HPM_P1;HPM_P2
2024/01/30 00:01:42;;;;;;;6.88;3.83;;;;;;;1.86;84.14;94122.44;4842350;29;20029;-80
2024/01/30 00:04:07;;;;;;;7.07;3.80;;;;;;;1.80;84.62;94115.47;4842787;29;20511;-79
2024/01/30 00:06:33;;;;;;;7.88;4.03;;;;;;;1.81;84.74;94124.78;4834011;29;20033;-80
2024/01/30 00:08:59;;;;;;;7.32;3.67;;;;;;;1.81;85.05;94127.38;4838126;29;20415;-79
2024/01/30 00:11:28;;;;;;;6.80;3.97;;;;;;;1.78;87.00;94122.63;4836165;29;20053;-79
2024/01/30 00:13:56;;;;;;;10.00;4.30;;;;;;;1.76;85.69;94124.59;4841570;29;20042;-79
2024/01/30 00:16:25;;;;;;;6.90;4.25;;;;;;;1.74;86.73;94118.81;4841168;29;20054;-80
2024/01/30 00:18:51;;;;;;;8.25;4.18;;;;;;;1.72;86.20;94115.63;4841932;29;20390;-80
2024/01/30 00:21:18;;;;;;;8.07;3.90;;;;;;;1.73;86.71;94121.56;4827016;29;20038;-79
2024/01/30 00:23:43;;;;;;;8.68;4.20;;;;;;;1.73;86.10;94122.38;4841754;29;20034;-80
2024/01/30 00:26:09;;;;;;;7.28;3.85;;;;;;;1.68;86.67;94117.00;4841717;29;20053;-80
2024/01/30 00:28:35;;;;;;;6.78;3.63;;;;;;;1.71;86.91;94120.97;4835338;29;20048;-80
2024/01/30 00:31:01;;;;;;;8.35;3.47;;;;;;;1.65;87.24;94114.78;4840643;29;20046;-80
2024/01/30 00:33:26;;;;;;;6.03;3.40;;;;;;;1.69;86.59;94118.59;4842097;29;20577;-80
2024/01/30 00:35:52;;;;;;;6.82;3.78;;;;;;;1.66;86.67;94114.59;4825384;29;20486;-80
2024/01/30 00:38:17;;;;;;;6.22;3.30;;;;;;;1.70;86.23;94117.59;4842004;29;20050;-80
2024/01/30 00:40:43;;;;;;;6.93;3.38;;;;;;;1.65;85.55;94101.88;4842049;29;20034;-79
2024/01/30 00:43:09;;;;;;;5.90;3.15;;;;;;;1.68;86.13;94106.66;4834590;29;20485;-79
2024/01/30 00:45:34;;;;;;;5.97;3.25;;;;;;;1.71;86.12;94111.44;4841841;29;20029;-79
2024/01/30 00:48:00;;;;;;;5.95;2.80;;;;;;;1.70;86.87;94112.44;4841917;29;20049;-80
2024/01/30 00:50:26;;;;;;;6.35;2.80;;;;;;;1.65;86.90;94113.00;4842172;29;20042;-80
2024/01/30 00:52:51;;;;;;;5.50;3.05;;;;;;;1.63;87.05;94111.59;4841656;29;20101;-79
2024/01/30 00:55:17;;;;;;;5.28;2.80;;;;;;;1.57;86.66;94105.41;4834854;29;20034;-79
2024/01/30 00:57:42;;;;;;;8.02;2.80;;;;;;;1.62;86.57;94112.59;4835018;29;20053;-79
2024/01/30 01:00:09;;;;;;;4.45;2.30;;;;;;;1.58;86.99;94101.84;4841493;29;21574;-80
2024/01/30 01:02:35;;;;;;;6.20;2.80;;;;;;;1.58;86.70;94111.38;4841274;29;20057;-80
2024/01/30 01:05:02;;;;;;;5.00;2.60;;;;;;;1.56;87.04;94105.63;4834547;29;20440;-79
2024/01/30 01:07:27;;;;;;;3.40;2.10;;;;;;;1.56;86.20;94110.78;4838527;29;20037;-79
2024/01/30 01:09:53;;;;;;;4.70;2.35;;;;;;;1.55;86.95;94112.53;4841242;29;20078;-79
2024/01/30 01:12:18;;;;;;;4.93;2.28;;;;;;;1.54;86.64;94105.00;4833482;29;20057;-80
2024/01/30 01:14:44;;;;;;;5.35;2.33;;;;;;;1.56;87.33;94113.38;4810818;29;20062;-80
2024/01/30 01:17:10;;;;;;;4.07;2.15;;;;;;;1.53;88.12;94116.31;4840886;29;20058;-78
2024/01/30 01:19:35;;;;;;;5.28;2.60;;;;;;;1.54;87.97;94115.34;4817764;29;20041;-77
2024/01/30 01:22:01;;;;;;;5.45;2.63;;;;;;;1.51;89.01;94111.34;4826502;29;20045;-79
2024/01/30 01:24:26;;;;;;;4.57;2.33;;;;;;;1.45;88.21;94107.72;4824428;29;20048;-81
2024/01/30 01:26:52;;;;;;;5.63;2.30;;;;;;;1.46;88.87;94108.53;4837068;29;20124;-79
2024/01/30 01:29:18;;;;;;;4.28;2.20;;;;;;;1.44;88.46;94116.47;4837642;29;20053;-80
2024/01/30 01:31:43;;;;;;;4.55;2.25;;;;;;;1.42;88.73;94113.28;4838014;29;20049;-80
2024/01/30 01:34:10;;;;;;;4.75;2.05;;;;;;;1.40;89.27;94111.88;4825035;29;20038;-78
2024/01/30 01:36:36;;;;;;;4.47;2.38;;;;;;;1.39;88.99;94111.06;4837505;29;20056;-80
2024/01/30 01:39:02;;;;;;;3.83;2.28;;;;;;;1.37;88.71;94115.63;4841343;29;20589;-80
2024/01/30 01:41:32;;;;;;;4.55;2.20;;;;;;;1.41;88.74;94119.41;4832052;29;20511;-80
2024/01/30 01:43:59;;;;;;;4.55;2.20;;;;;;;1.40;88.27;94115.25;4838393;29;20064;-79
2024/01/30 01:46:27;;;;;;;6.25;2.20;;;;;;;1.39;87.58;94110.28;4814791;29;20034;-80
2024/01/30 01:48:55;;;;;;;4.32;2.20;;;;;;;1.36;87.42;94108.88;4838300;29;20444;-79
2024/01/30 01:51:22;;;;;;;5.13;2.10;;;;;;;1.37;88.00;94109.66;4822148;29;20035;-80
2024/01/30 01:53:47;;;;;;;3.83;2.00;;;;;;;1.37;89.50;94110.47;4831756;29;20073;-80
2024/01/30 01:56:13;;;;;;;4.50;2.30;;;;;;;1.28;89.01;94106.44;4835393;29;20042;-79
2024/01/30 01:58:41;;;;;;;5.60;2.80;;;;;;;1.32;89.97;94110.22;4841488;29;20034;-80
2024/01/30 02:01:07;;;;;;;6.85;3.60;;;;;;;1.26;90.85;94103.25;4841619;29;20480;-79
2024/01/30 02:03:34;;;;;;;10.45;4.40;;;;;;;1.30;90.76;94104.47;4819326;29;20082;-80
2024/01/30 02:06:02;;;;;;;8.45;4.47;;;;;;;1.30;91.26;94109.63;4816576;29;20037;-79
2024/01/30 02:08:28;;;;;;;7.28;4.03;;;;;;;1.26;91.23;94100.66;4826257;29;20046;-79
2024/01/30 02:10:54;;;;;;;9.93;5.15;;;;;;;1.30;90.64;94106.25;4825073;29;20097;-78
2024/01/30 02:13:21;;;;;;;12.57;6.50;;;;;;;1.33;90.92;94111.03;4817551;29;20084;-80
2024/01/30 02:15:53;;;;;;;14.35;6.78;;;;;;;1.33;91.09;94111.84;4842123;29;20059;-80
2024/01/30 02:18:21;;;;;;;12.20;4.97;;;;;;;1.33;90.54;94114.44;4826950;29;20046;-80
2024/01/30 02:20:47;;;;;;;8.75;4.28;;;;;;;1.33;89.98;94114.44;4841282;29;20410;-80
2024/01/30 02:23:15;;;;;;;9.73;4.78;;;;;;;1.30;89.74;94109.63;4842238;29;20038;-78
2024/01/30 02:25:45;;;;;;;11.73;5.07;;;;;;;1.29;90.73;94109.84;4821630;29;20054;-80
2024/01/30 02:28:15;;;;;;;8.57;4.68;;;;;;;1.21;90.00;94103.03;4837248;29;20042;-80
2024/01/30 02:30:42;;;;;;;7.25;3.75;;;;;;;1.21;90.27;94105.59;4837809;29;20026;-80
2024/01/30 02:33:08;;;;;;;5.90;2.85;;;;;;;1.19;89.68;94112.72;4831094;29;20042;-78
2024/01/30 02:35:34;;;;;;;6.95;3.13;;;;;;;1.18;89.33;94106.00;4824367;29;20034;-80
2024/01/30 02:37:59;;;;;;;7.15;3.25;;;;;;;1.18;90.88;94111.94;4843753;29;20345;-80
2024/01/30 02:40:25;;;;;;;6.55;3.67;;;;;;;1.17;90.74;94100.03;4838611;29;20049;-79
2024/01/30 02:42:51;;;;;;;9.40;4.38;;;;;;;1.16;90.95;94101.00;4844241;29;20041;-80
2024/01/30 02:45:16;;;;;;;7.88;4.85;;;;;;;1.17;91.84;94110.34;4837105;29;20054;-80
2024/01/30 02:47:42;;;;;;;10.68;4.85;;;;;;;1.15;90.97;94102.00;4822623;29;20076;-80
2024/01/30 02:50:08;;;;;;;8.38;4.80;;;;;;;1.16;91.33;94097.63;4842579;29;20048;-80
2024/01/30 02:52:34;;;;;;;9.50;4.70;;;;;;;1.17;90.96;94104.38;4827302;29;20044;-80
2024/01/30 02:55:00;;;;;;;7.63;4.15;;;;;;;1.19;90.93;94107.56;4843642;29;20061;-80
2024/01/30 02:57:26;;;;;;;8.27;4.07;;;;;;;1.21;91.66;94105.59;4838890;29;20030;-80
2024/01/30 02:59:51;;;;;;;7.80;4.18;;;;;;;1.20;91.64;94098.84;4844905;29;20098;-80
2024/01/30 03:02:17;;;;;;;9.48;5.00;;;;;;;1.20;91.69;94104.03;4843501;29;20380;-78
2024/01/30 03:04:43;;;;;;;9.38;4.57;;;;;;;1.19;91.47;94102.41;4836687;29;20037;-80
2024/01/30 03:07:09;;;;;;;6.35;3.90;;;;;;;1.17;92.07;94101.78;4844666;29;20037;-80
2024/01/30 03:09:35;;;;;;;6.75;3.80;;;;;;;1.13;91.69;94098.03;4843559;29;20066;-79
2024/01/30 03:12:00;;;;;;;6.88;3.20;;;;;;;1.14;91.89;94108.13;4827264;29;20510;-80
2024/01/30 03:14:26;;;;;;;6.75;4.05;;;;;;;1.14;91.82;94099.59;4838674;29;20327;-80
2024/01/30 03:16:52;;;;;;;11.02;6.72;;;;;;;1.09;92.77;94102.75;4824004;29;20079;-78
2024/01/30 03:19:18;;;;;;;10.40;6.28;;;;;;;1.14;93.13;94104.75;4836443;29;20034;-79
2024/01/30 03:21:44;;;;;;;10.15;6.07;;;;;;;1.11;93.11;94100.00;4839306;29;20065;-80
2024/01/30 03:24:10;;;;;;;7.60;4.75;;;;;;;1.11;93.24;94103.34;4836488;29;20161;-80
2024/01/30 03:26:36;;;;;;;8.55;4.63;;;;;;;1.08;94.34;94105.50;4836640;29;20042;-80
2024/01/30 03:29:01;;;;;;;6.20;3.83;;;;;;;1.06;93.40;94104.91;4836895;29;20042;-79
2024/01/30 03:31:27;;;;;;;6.65;3.90;;;;;;;1.01;93.92;94095.97;4831430;29;20492;-78
2024/01/30 03:33:53;;;;;;;7.15;3.90;;;;;;;1.03;93.36;94104.28;4841138;29;20038;-78
2024/01/30 03:36:18;;;;;;;8.27;5.53;;;;;;;1.03;95.27;94103.50;4823329;29;20074;-79
2024/01/30 03:38:44;;;;;;;8.63;5.78;;;;;;;0.99;95.30;94097.94;4833670;29;20050;-79
2024/01/30 03:41:10;;;;;;;7.72;4.50;;;;;;;0.98;95.22;94104.06;4843484;29;20050;-79
2024/01/30 03:43:36;;;;;;;6.82;4.13;;;;;;;0.97;94.71;94099.09;4824682;29;20050;-79
2024/01/30 03:46:02;;;;;;;6.93;4.10;;;;;;;0.97;93.93;94097.31;4842872;29;20038;-80
2024/01/30 03:48:29;;;;;;;8.30;4.05;;;;;;;0.94;95.06;94091.72;4827277;29;20038;-80
2024/01/30 03:50:54;;;;;;;7.32;4.47;;;;;;;0.96;95.79;94092.34;4835435;29;20034;-80
2024/01/30 03:53:20;;;;;;;7.50;4.30;;;;;;;0.92;95.49;94097.06;4836039;29;20403;-79
2024/01/30 03:55:46;;;;;;;6.30;3.70;;;;;;;0.92;94.73;94091.91;4837191;29;20037;-80
2024/01/30 03:58:11;;;;;;;6.80;3.60;;;;;;;0.92;94.17;94094.47;4842611;29;20041;-79
2024/01/30 04:00:37;;;;;;;7.43;3.65;;;;;;;0.93;94.01;94092.72;4805679;29;20038;-80
2024/01/30 04:03:03;;;;;;;7.00;3.45;;;;;;;0.94;93.76;94091.72;4840212;29;20066;-80
2024/01/30 04:05:28;;;;;;;6.22;3.33;;;;;;;0.95;94.42;94096.69;4833105;29;20065;-79
2024/01/30 04:07:54;;;;;;;6.93;3.50;;;;;;;0.94;94.53;94097.66;4840807;29;20049;-80
2024/01/30 04:10:20;;;;;;;7.82;3.67;;;;;;;0.91;94.35;94092.09;4840243;29;20456;-79
2024/01/30 04:12:45;;;;;;;6.22;3.40;;;;;;;0.92;94.25;94097.06;4824741;29;20045;-79
2024/01/30 04:15:11;;;;;;;8.40;3.92;;;;;;;0.86;94.51;94079.78;4839001;29;20049;-79
2024/01/30 04:17:36;;;;;;;6.40;3.70;;;;;;;0.92;94.88;94091.91;4819947;29;20419;-80
2024/01/30 04:20:03;;;;;;;7.40;3.75;;;;;;;0.92;95.31;94084.16;4840772;29;20163;-80
2024/01/30 04:22:29;;;;;;;7.80;3.78;;;;;;;0.90;94.52;94083.59;4838614;29;20524;-80
2024/01/30 04:24:55;;;;;;;7.57;3.70;;;;;;;0.90;94.60;94086.16;4840685;29;20897;-80
2024/01/30 04:27:20;;;;;;;8.65;4.10;;;;;;;0.91;94.52;94084.38;4842927;29;20041;-80
2024/01/30 04:29:46;;;;;;;9.73;3.85;;;;;;;0.91;94.87;94082.59;4820269;29;20042;-80
2024/01/30 04:32:11;;;;;;;7.85;4.47;;;;;;;0.89;94.27;94079.41;4826937;29;20044;-79
2024/01/30 04:34:37;;;;;;;11.50;5.05;;;;;;;0.92;93.60;94080.81;4835944;29;20419;-79
2024/01/30 04:37:03;;;;;;;9.80;5.40;;;;;;;0.87;93.32;94073.63;4841727;29;20045;-80
2024/01/30 04:39:28;;;;;;;10.70;5.15;;;;;;;0.85;93.13;94073.00;4842496;29;20025;-80
2024/01/30 04:41:54;;;;;;;8.48;4.88;;;;;;;0.93;92.57;94083.19;4827564;29;20480;-80
2024/01/30 04:44:20;;;;;;;8.02;4.60;;;;;;;0.92;93.01;94080.81;4835877;29;20447;-80
2024/01/30 04:46:45;;;;;;;9.68;4.40;;;;;;;0.90;92.72;94082.75;4826531;29;20034;-79
2024/01/30 04:49:11;;;;;;;8.25;3.97;;;;;;;0.88;93.30;94080.38;4807039;29;20059;-79
2024/01/30 04:51:36;;;;;;;7.50;4.22;;;;;;;0.89;93.01;94083.75;4837444;29;20046;-80
2024/01/30 04:54:02;;;;;;;8.38;4.03;;;;;;;0.90;93.67;94077.59;4832932;29;20035;-79
2024/01/30 04:56:28;;;;;;;7.40;4.07;;;;;;;0.90;93.99;94077.59;4839369;29;20102;-80
2024/01/30 04:58:54;;;;;;;6.72;4.05;;;;;;;0.88;93.05;94077.81;4841815;29;20034;-80
2024/01/30 05:01:19;;;;;;;8.43;4.03;;;;;;;0.89;92.78;94076.81;4825077;29;20048;-80
2024/01/30 05:03:45;;;;;;;7.88;4.57;;;;;;;0.86;91.83;94073.81;4840816;29;20533;-79
2024/01/30 05:06:11;;;;;;;7.00;4.15;;;;;;;0.86;93.06;94077.19;4841539;29;20430;-79
2024/01/30 05:08:36;;;;;;;7.25;4.25;;;;;;;0.90;94.27;94078.44;4842364;29;20041;-80
2024/01/30 05:11:05;;;;;;;7.65;4.35;;;;;;;0.89;95.15;94081.97;4840337;29;20514;-79
2024/01/30 05:13:31;;;;;;;8.15;4.47;;;;;;;0.88;94.24;94082.16;4816276;29;20033;-79
2024/01/30 05:15:57;;;;;;;8.88;4.20;;;;;;;0.88;93.99;94085.53;4817131;29;20062;-80
2024/01/30 05:18:23;;;;;;;8.38;4.40;;;;;;;0.86;94.38;94077.19;4821572;29;20046;-80
2024/01/30 05:20:50;;;;;;;7.20;3.95;;;;;;;0.83;95.95;94082.72;4834304;29;20505;-79
2024/01/30 05:23:16;;;;;;;7.80;4.00;;;;;;;0.81;96.37;94074.38;4835290;29;20026;-80
2024/01/30 05:25:42;;;;;;;8.07;4.20;;;;;;;0.75;95.76;94078.50;4836710;29;20045;-80
2024/01/30 05:28:07;;;;;;;7.53;4.47;;;;;;;0.79;95.58;94084.09;4837825;29;20067;-80
2024/01/30 05:30:36;;;;;;;8.13;4.25;;;;;;;0.79;95.58;94076.34;4829036;29;20407;-78
2024/01/30 05:33:02;;;;;;;8.45;4.03;;;;;;;0.73;95.66;94077.09;4808919;29;20103;-80
2024/01/30 05:35:28;;;;;;;6.95;4.50;;;;;;;0.79;95.40;94089.25;4829837;29;20572;-79
2024/01/30 05:37:53;;;;;;;7.82;4.57;;;;;;;0.79;95.63;94084.88;4815094;29;20042;-80
2024/01/30 05:40:20;;;;;;;7.30;4.35;;;;;;;0.81;95.93;94089.84;4839723;29;20045;-79
2024/01/30 05:42:46;;;;;;;9.73;5.03;;;;;;;0.81;95.79;94085.50;4822961;29;20571;-78
2024/01/30 05:45:12;;;;;;;9.57;4.78;;;;;;;0.82;96.10;94075.97;4838407;29;20038;-78
2024/01/30 05:47:39;;;;;;;9.93;4.47;;;;;;;0.83;95.53;94082.72;4841716;29;20101;-81
2024/01/30 05:50:05;;;;;;;8.27;4.55;;;;;;;0.82;95.52;94075.97;4837348;29;20430;-81
2024/01/30 05:52:31;;;;;;;7.35;4.10;;;;;;;0.84;94.88;94079.16;4847767;29;20030;-79
2024/01/30 05:54:56;;;;;;;7.82;4.40;;;;;;;0.82;95.44;94078.56;4842796;29;20050;-79
2024/01/30 05:57:22;;;;;;;9.23;4.30;;;;;;;0.84;95.24;94084.31;4798818;29;20039;-78
2024/01/30 05:59:47;;;;;;;6.45;3.25;;;;;;;0.83;95.67;94088.69;4839915;29;20038;-82
2024/01/30 06:02:14;;;;;;;6.82;3.42;;;;;;;0.82;96.42;94091.44;4839035;29;20045;-81
2024/01/30 06:04:39;;;;;;;5.90;2.90;;;;;;;0.84;96.79;94084.31;4845028;29;20044;-80
2024/01/30 06:07:06;;;;;;;5.25;2.60;;;;;;;0.84;96.84;94084.31;4826646;29;20117;-82
2024/01/30 06:09:35;;;;;;;4.13;2.22;;;;;;;0.82;95.75;94084.50;4843613;29;20045;-81
2024/01/30 06:12:14;;;;;;;7.43;2.25;;;;;;;0.82;94.93;94078.56;4849502;29;20418;-81
2024/01/30 06:14:44;;;;;;;4.20;2.20;;;;;;;0.82;94.62;94081.13;4849068;29;20075;-82
2024/01/30 06:17:17;;;;;;;4.60;2.35;;;;;;;0.81;94.65;94080.34;4848727;29;20054;-81
2024/01/30 06:19:42;;;;;;;5.07;2.85;;;;;;;0.80;94.50;94081.31;4830592;29;20034;-81
2024/01/30 06:22:08;;;;;;;5.95;3.30;;;;;;;0.80;96.14;94088.25;4846910;29;20029;-79
2024/01/30 06:24:34;;;;;;;5.20;3.05;;;;;;;0.74;95.44;94082.03;4847595;29;20551;-81
2024/01/30 06:27:00;;;;;;;7.53;3.53;;;;;;;0.79;94.77;94084.88;4845425;29;20414;-78
2024/01/30 06:29:26;;;;;;;6.45;3.20;;;;;;;0.80;95.38;94088.25;4845768;29;20041;-81
2024/01/30 06:31:52;;;;;;;5.85;3.17;;;;;;;0.79;94.79;94087.47;4828969;29;20030;-81
2024/01/30 06:34:18;;;;;;;5.03;3.03;;;;;;;0.81;94.49;94087.25;4846847;29;20041;-81
2024/01/30 06:36:43;;;;;;;7.30;3.22;;;;;;;0.83;93.56;94085.28;4847121;29;20077;-80
2024/01/30 06:39:09;;;;;;;4.40;2.50;;;;;;;0.87;93.31;94083.94;4846834;29;20073;-80
2024/01/30 06:41:34;;;;;;;5.55;2.50;;;;;;;0.90;93.79;94088.75;4846474;29;20518;-81
2024/01/30 06:44:03;;;;;;;3.88;2.20;;;;;;;0.89;93.21;94086.34;4846019;29;20046;-79
2024/01/30 06:46:29;;;;;;;4.38;2.35;;;;;;;0.98;93.05;94085.22;4829212;29;20042;-80
2024/01/30 06:48:55;;;;;;;3.80;2.10;;;;;;;1.01;93.48;94093.38;4845449;29;20042;-81
2024/01/30 06:51:20;;;;;;;3.95;2.25;;;;;;;1.01;92.89;94095.16;4846150;29;20044;-83
2024/01/30 06:53:46;;;;;;;4.70;2.55;;;;;;;1.09;93.34;94094.22;4848455;29;20234;-81
2024/01/30 06:56:13;;;;;;;4.03;2.22;;;;;;;1.12;93.68;94093.84;4846965;29;20033;-80
2024/01/30 06:58:42;;;;;;;4.63;2.30;;;;;;;1.15;92.23;94093.44;4846690;29;20057;-80
2024/01/30 07:01:09;;;;;;;4.60;2.40;;;;;;;1.23;92.12;94098.47;4847567;29;20030;-77
2024/01/30 07:03:35;;;;;;;5.00;1.92;;;;;;;1.30;92.17;94099.31;4845891;29;20042;-81
2024/01/30 07:06:13;;;;;;;4.25;2.30;;;;;;;1.43;91.87;94096.00;4847763;29;20049;-82
2024/01/30 07:08:39;;;;;;;5.53;2.38;;;;;;;2.00;89.26;94100.03;4845254;29;20144;-80
2024/01/30 07:11:08;;;;;;;4.25;1.98;;;;;;;2.97;85.25;94112.72;4829661;29;20057;-82
2024/01/30 07:13:35;;;;;;;4.28;2.15;;;;;;;3.76;78.33;94104.06;4845260;29;20038;-82
2024/01/30 07:16:00;;;;;;;4.65;2.00;;;;;;;4.47;72.97;94102.34;4828972;29;20058;-81
2024/01/30 07:18:26;;;;;;;4.10;2.10;;;;;;;5.39;69.18;94100.06;4840966;29;20049;-82
2024/01/30 07:20:52;;;;;;;6.30;2.67;;;;;;;6.05;66.43;94104.56;4825949;29;20105;-81
2024/01/30 07:23:17;;;;;;;4.32;2.13;;;;;;;6.47;64.52;94103.88;4842495;29;20042;-82
2024/01/30 07:25:49;;;;;;;4.10;2.30;;;;;;;6.73;63.33;94105.28;4839537;29;20101;-80
2024/01/30 07:28:18;;;;;;;5.68;2.50;;;;;;;6.84;59.53;94094.13;4826491;29;20037;-81
2024/01/30 07:30:44;;;;;;;3.83;2.22;;;;;;;6.90;58.77;94102.84;4840175;29;20032;-80
2024/01/30 07:33:13;;;;;;;4.55;2.40;;;;;;;6.72;58.30;94108.13;4824619;29;20034;-81
2024/01/30 07:35:40;;;;;;;4.80;2.60;;;;;;;6.60;59.51;94105.50;4841587;29;20064;-80
2024/01/30 07:38:06;;;;;;;4.45;2.30;;;;;;;6.58;60.13;94110.13;4839241;29;20519;-80
2024/01/30 07:40:33;;;;;;;5.20;2.47;;;;;;;6.58;59.45;94115.34;4842424;29;20042;-80
2024/01/30 07:42:59;;;;;;;4.93;2.22;;;;;;;6.78;58.73;94110.66;4825394;29;20508;-81
2024/01/30 07:45:25;;;;;;;4.75;2.28;;;;;;;7.41;57.17;94113.69;4842585;29;20030;-81
2024/01/30 07:47:51;;;;;;;4.10;2.40;;;;;;;8.40;52.73;94105.84;4839615;29;20502;-82
2024/01/30 07:50:18;;;;;;;3.90;2.20;;;;;;;9.33;49.16;94108.19;4841603;29;20097;-83
2024/01/30 07:52:44;;;;;;;4.38;2.25;;;;;;;10.11;47.32;94109.00;4841313;29;20054;-83
2024/01/30 07:55:10;;;;;;;5.22;2.50;;;;;;;10.39;43.41;94110.66;4823375;29;20077;-81
2024/01/30 07:57:39;;;;;;;4.28;2.45;;;;;;;10.29;42.90;94112.38;4835873;29;20038;-83
2024/01/30 08:00:07;;;;;;;4.45;2.30;;;;;;;10.06;43.42;94111.53;4841430;29;20030;-84
2024/01/30 08:02:34;;;;;;;4.97;2.60;;;;;;;9.68;44.90;94123.63;4831302;29;20053;-83
2024/01/30 08:05:00;;;;;;;5.43;2.22;;;;;;;9.34;45.01;94113.19;4834354;29;20038;-82
2024/01/30 08:07:29;;;;;;;4.53;2.35;;;;;;;9.00;46.08;94124.63;4824017;29;20041;-81
2024/01/30 08:09:55;;;;;;;4.47;2.30;;;;;;;8.90;47.69;94126.06;4841201;29;20041;-79
2024/01/30 08:12:20;;;;;;;5.45;2.30;;;;;;;8.77;48.24;94123.72;4842565;29;20049;-80
2024/01/30 08:14:46;;;;;;;4.65;2.50;;;;;;;8.75;48.28;94136.22;4825876;29;20034;-79
2024/01/30 08:17:12;;;;;;;4.68;2.13;;;;;;;8.58;48.69;94130.16;4841180;29;20105;-78
2024/01/30 08:19:37;;;;;;;4.40;2.40;;;;;;;8.65;48.32;94129.00;4841431;29;20126;-79
2024/01/30 08:22:03;;;;;;;4.03;2.20;;;;;;;8.71;48.82;94129.88;4823782;29;20472;-79
2024/01/30 08:24:28;;;;;;;8.48;2.40;;;;;;;8.99;48.38;94129.06;4830880;29;20033;-80
2024/01/30 08:26:54;;;;;;;4.10;2.25;;;;;;;8.98;48.99;94132.69;4836784;29;20046;-80
2024/01/30 08:29:20;;;;;;;4.45;2.53;;;;;;;9.22;48.00;94125.53;4846305;29;20474;-80
2024/01/30 08:31:46;;;;;;;6.22;2.88;;;;;;;9.20;47.64;94130.19;4836597;29;20557;-80
2024/01/30 08:34:12;;;;;;;4.63;2.65;;;;;;;9.10;48.63;94130.84;4829823;29;20056;-82
2024/01/30 08:36:37;;;;;;;4.70;2.63;;;;;;;9.30;48.77;94126.94;4843372;29;20041;-81
2024/01/30 08:39:24;;;;;;;5.57;2.90;;;;;;;9.26;49.10;94133.69;4846757;29;20079;-81
2024/01/30 08:41:56;;;;;;;4.20;2.78;;;;;;;9.46;47.39;94128.00;4848181;29;20034;-80
2024/01/30 08:44:27;;;;;;;4.47;2.50;;;;;;;9.58;46.16;94126.06;4850312;29;20507;-82
2024/01/30 08:46:53;;;;;;;5.95;3.00;;;;;;;9.45;46.78;94113.31;4841360;29;20037;-81
2024/01/30 08:49:20;;;;;;;4.50;2.60;;;;;;;9.79;44.66;94122.72;4837463;29;20042;-80
2024/01/30 08:51:45;;;;;;;4.65;2.50;;;;;;;10.14;43.97;94124.22;4842465;29;20133;-80
2024/01/30 08:54:11;;;;;;;4.22;2.47;;;;;;;10.70;44.06;94128.53;4832528;29;20034;-81
2024/01/30 08:56:38;;;;;;;4.30;2.45;;;;;;;10.83;44.11;94128.94;4839217;29;20407;-80
2024/01/30 08:59:06;;;;;;;4.00;2.40;;;;;;;10.94;43.42;94131.66;4839480;29;20037;-81
2024/01/30 09:01:32;;;;;;;4.15;2.47;;;;;;;10.88;43.13;94122.19;4837694;29;20034;-81
2024/01/30 09:03:57;;;;;;;4.57;2.67;;;;;;;10.96;43.97;94132.97;4819957;29;20091;-80
2024/01/30 09:06:26;;;;;;;5.45;2.40;;;;;;;11.00;42.96;94130.66;4842253;29;20353;-80
2024/01/30 09:08:52;;;;;;;4.93;2.63;;;;;;;10.88;43.77;94122.97;4822823;29;20057;-80
2024/01/30 09:11:17;;;;;;;5.15;2.42;;;;;;;10.78;45.36;94128.09;4843048;29;20046;-80
2024/01/30 09:13:43;;;;;;;4.75;2.55;;;;;;;10.91;43.59;94135.56;4841172;29;20034;-81
2024/01/30 09:16:09;;;;;;;3.83;2.15;;;;;;;11.28;44.30;94131.41;4841682;29;20065;-82
2024/01/30 09:18:34;;;;;;;4.15;2.20;;;;;;;11.18;43.92;94129.50;4825530;29;20054;-80
2024/01/30 09:21:01;;;;;;;5.43;2.35;;;;;;;11.22;43.89;94117.50;4844107;29;20042;-81
2024/01/30 09:23:27;;;;;;;5.93;2.75;;;;;;;11.11;43.08;94126.31;4843801;29;20042;-80
2024/01/30 09:25:54;;;;;;;4.70;2.30;;;;;;;11.11;42.11;94128.94;4842090;29;20034;-80
2024/01/30 09:28:20;;;;;;;4.70;2.60;;;;;;;10.53;44.32;94126.78;4836189;29;20041;-80
2024/01/30 09:30:46;;;;;;;4.30;2.38;;;;;;;10.76;43.99;94140.63;4841584;29;20034;-79
2024/01/30 09:33:12;;;;;;;3.92;2.20;;;;;;;11.03;43.06;94143.25;4846091;29;20040;-81
2024/01/30 09:35:38;;;;;;;5.00;2.50;;;;;;;11.15;41.51;94137.88;4843421;29;20050;-81
2024/01/30 09:38:04;;;;;;;3.90;2.28;;;;;;;11.00;41.19;94143.75;4827610;29;20388;-81
2024/01/30 09:40:29;;;;;;;4.07;2.50;;;;;;;10.97;42.19;94139.81;4846445;29;20049;-79
2024/01/30 09:43:01;;;;;;;4.10;2.30;;;;;;;10.99;43.31;94142.97;4839913;29;20093;-80
2024/01/30 09:46:11;;;;;;;4.78;2.70;;;;;;;11.10;42.82;94143.06;4840275;29;20525;-81
2024/01/30 09:48:40;;;;;;;3.72;2.33;;;;;;;10.74;42.71;94145.31;4842852;29;20053;-81
2024/01/30 09:51:22;;;;;;;4.40;2.30;;;;;;;10.43;39.84;94146.84;4846907;29;20435;-80
2024/01/30 09:53:49;;;;;;;4.20;2.20;;;;;;;10.70;38.96;94141.63;4839141;29;20052;-80
2024/01/30 09:56:14;;;;;;;3.65;2.08;;;;;;;10.71;40.06;94148.44;4847522;29;20037;-80
2024/01/30 09:58:41;;;;;;;4.80;2.67;;;;;;;10.76;40.36;94145.88;4847726;29;20046;-80
2024/01/30 10:01:07;;;;;;;3.83;2.25;;;;;;;10.63;38.97;94155.72;4829983;29;20031;-80
2024/01/30 10:03:41;;;;;;;4.18;2.30;;;;;;;10.45;38.81;94150.78;4844336;29;20125;-79
2024/01/30 10:06:22;;;;;;;4.95;2.50;;;;;;;10.69;37.56;94147.91;4846548;29;20038;-80
2024/01/30 10:08:48;;;;;;;4.88;2.17;;;;;;;10.59;36.99;94151.22;4847953;29;20128;-81
2024/01/30 10:11:13;;;;;;;4.82;2.50;;;;;;;10.68;38.29;94149.75;4846952;29;20107;-80
2024/01/30 10:13:39;;;;;;;3.70;2.08;;;;;;;10.50;38.03;94153.47;4843766;29;20045;-82
2024/01/30 10:16:06;;;;;;;3.85;2.10;;;;;;;10.27;37.76;94158.91;4827071;29;20065;-80
2024/01/30 10:18:35;;;;;;;4.22;2.42;;;;;;;10.55;39.18;94150.91;4819824;29;20464;-81
2024/01/30 10:21:00;;;;;;;4.47;2.58;;;;;;;10.59;40.73;94144.13;4841667;29;20404;-81
2024/01/30 10:23:26;;;;;;;4.65;2.50;;;;;;;10.42;39.14;94153.88;4839726;29;20053;-82
2024/01/30 10:25:52;;;;;;;5.97;3.00;;;;;;;10.41;39.44;94145.25;4831634;29;20014;-82
2024/01/30 10:28:18;;;;;;;4.20;2.67;;;;;;;10.38;38.99;94150.97;4842449;29;20095;-81
2024/01/30 10:30:43;;;;;;;4.97;2.95;;;;;;;10.22;38.91;94141.31;4837410;29;20924;-81
2024/01/30 10:33:09;;;;;;;5.30;2.70;;;;;;;10.15;40.84;94149.34;4843194;29;20034;-80
2024/01/30 10:35:35;;;;;;;5.60;3.03;;;;;;;10.11;41.81;94150.88;4842726;29;20124;-82
2024/01/30 10:38:01;;;;;;;5.78;3.33;;;;;;;9.93;41.35;94145.91;4847979;29;20042;-82
2024/01/30 10:40:32;;;;;;;5.20;3.20;;;;;;;9.79;42.45;94141.03;4819542;29;20030;-82
2024/01/30 10:43:01;;;;;;;5.55;2.83;;;;;;;9.66;41.89;94140.56;4837389;29;20037;-80
2024/01/30 10:45:31;;;;;;;5.05;3.00;;;;;;;9.26;43.80;94139.72;4826497;29;20036;-81
2024/01/30 10:47:58;;;;;;;5.68;3.03;;;;;;;9.02;44.61;94135.66;4829323;29;20041;-78
2024/01/30 10:50:27;;;;;;;5.93;3.00;;;;;;;9.06;45.71;94132.31;4816642;29;20030;-80
2024/01/30 10:53:05;;;;;;;5.43;3.10;;;;;;;8.72;46.23;94134.09;4837952;29;20050;-78
2024/01/30 10:55:31;;;;;;;6.22;3.30;;;;;;;8.68;46.55;94127.75;4842687;29;20026;-80
2024/01/30 10:57:58;;;;;;;8.35;3.55;;;;;;;8.87;47.17;94126.53;4845997;29;20033;-81
2024/01/30 11:00:26;;;;;;;8.27;3.00;;;;;;;9.13;46.65;94134.78;4832955;29;20046;-80
2024/01/30 11:02:52;;;;;;;6.20;3.58;;;;;;;9.52;45.03;94124.41;4828083;29;20034;-79
2024/01/30 11:05:26;;;;;;;8.25;3.20;;;;;;;9.88;44.99;94125.69;4847420;29;20065;-80
2024/01/30 11:07:53;;;;;;;5.57;3.35;;;;;;;10.13;44.81;94117.41;4848001;29;20122;-80
2024/01/30 11:10:19;;;;;;;7.63;3.53;;;;;;;10.28;43.46;94126.47;4848104;29;20030;-80
2024/01/30 11:12:50;;;;;;;5.40;3.10;;;;;;;10.27;42.67;94123.06;4842155;29;20179;-81
2024/01/30 11:15:18;;;;;;;5.00;2.85;;;;;;;10.67;42.16;94121.94;4841824;29;20065;-79
2024/01/30 11:17:52;;;;;;;7.13;3.40;;;;;;;10.87;42.55;94125.81;4829398;29;20061;-81
2024/01/30 11:20:45;;;;;;;6.55;3.40;;;;;;;10.75;40.01;94124.13;4823425;29;20034;-81
2024/01/30 11:23:12;;;;;;;6.03;3.30;;;;;;;11.08;42.66;94114.50;4843801;29;20054;-81
2024/01/30 11:25:39;;;;;;;5.80;3.70;;;;;;;10.99;43.17;94116.78;4824024;29;20030;-80
2024/01/30 11:28:14;;;;;;;6.47;3.47;;;;;;;11.35;43.17;94122.31;4840086;29;20114;-81
2024/01/30 11:30:40;;;;;;;4.95;3.00;;;;;;;11.15;41.83;94114.28;4825454;29;20054;-81
2024/01/30 11:33:08;;;;;;;6.10;3.67;;;;;;;11.23;43.41;94111.19;4830508;29;20062;-82
2024/01/30 11:35:36;;;;;;;6.85;3.63;;;;;;;11.31;43.15;94110.75;4828430;29;20040;-81
2024/01/30 11:38:11;;;;;;;7.07;3.95;;;;;;;11.30;41.95;94093.41;4845107;29;20068;-82